TimeCDT,TemperatureF,Dew PointF,Humidity,Sea Level PressureIn,VisibilityMPH,Wind Direction,Wind SpeedMPH,Gust SpeedMPH,PrecipitationIn,Events,Conditions,WindDirDegrees,DateUTC
12:15 AM,79.7,74.1,83,29.86,10.0,SW,4.6,-,N/A,,Scattered Clouds,220,2013-08-31 05:15:00
12:35 AM,79.9,74.3,83,29.86,10.0,SW,4.6,-,N/A,,Clear,230,2013-08-31 05:35:00
12:55 AM,79.5,74.1,83,29.85,10.0,SW,4.6,-,N/A,,Clear,220,2013-08-31 05:55:00
1:15 AM,79.7,74.3,83,29.85,10.0,SW,5.8,-,N/A,,Clear,230,2013-08-31 06:15:00
1:35 AM,80.2,74.5,83,29.84,10.0,SW,6.9,-,N/A,,Clear,230,2013-08-31 06:35:00
1:55 AM,81.3,74.5,80,29.85,10.0,Calm,Calm,-,N/A,,Scattered Clouds,0,2013-08-31 06:55:00
2:15 AM,81.0,74.5,81,29.85,10.0,Calm,Calm,-,N/A,,Mostly Cloudy,0,2013-08-31 07:15:00
2:35 AM,80.2,74.5,83,29.87,10.0,NNE,3.5,-,N/A,Thunderstorm,Mostly Cloudy,30,2013-08-31 07:35:00
2:55 AM,79.9,74.5,83,29.87,10.0,Calm,Calm,-,N/A,Thunderstorm,Overcast,0,2013-08-31 07:55:00
3:15 AM,80.2,74.5,83,29.86,10.0,Calm,Calm,-,N/A,,Overcast,0,2013-08-31 08:15:00
3:35 AM,79.7,74.3,83,29.86,10.0,SSE,3.5,-,N/A,,Scattered Clouds,160,2013-08-31 08:35:00
3:55 AM,77.7,74.3,89,29.86,10.0,South,4.6,-,N/A,,Clear,190,2013-08-31 08:55:00
4:15 AM,77.2,74.3,91,29.86,10.0,Calm,Calm,-,N/A,,Clear,0,2013-08-31 09:15:00
4:35 AM,76.5,74.8,95,29.86,10.0,Calm,Calm,-,N/A,,Clear,0,2013-08-31 09:35:00
4:55 AM,75.9,75.4,98,29.85,10.0,SSW,4.6,-,N/A,,Clear,200,2013-08-31 09:55:00
5:15 AM,76.1,74.8,96,29.86,10.0,Calm,Calm,-,N/A,,Clear,0,2013-08-31 10:15:00
5:35 AM,75.2,75.0,99,29.85,10.0,Calm,Calm,-,N/A,,Clear,0,2013-08-31 10:35:00
5:55 AM,75.2,75.2,100,29.86,10.0,Calm,Calm,-,N/A,,Clear,0,2013-08-31 10:55:00
6:15 AM,75.7,75.0,98,29.86,10.0,Calm,Calm,-,N/A,,Clear,0,2013-08-31 11:15:00
6:35 AM,75.4,74.8,98,29.86,10.0,Calm,Calm,-,N/A,,Clear,0,2013-08-31 11:35:00
6:55 AM,75.2,75.2,100,29.86,7.0,South,3.5,-,N/A,,Clear,190,2013-08-31 11:55:00
7:15 AM,76.3,75.7,98,29.86,10.0,South,3.5,-,N/A,,Clear,180,2013-08-31 12:15:00
7:35 AM,78.3,75.4,91,29.86,10.0,South,3.5,-,N/A,,Clear,190,2013-08-31 12:35:00
7:55 AM,80.1,75.6,86,29.87,10.0,South,3.5,-,N/A,,Clear,180,2013-08-31 12:55:00
8:15 AM,81.7,76.1,83,29.87,10.0,SSW,4.6,-,N/A,,Clear,210,2013-08-31 13:15:00
8:35 AM,82.6,75.6,79,29.87,10.0,SSW,4.6,-,N/A,,Clear,210,2013-08-31 13:35:00
8:55 AM,84.2,75.2,74,29.87,10.0,SW,5.8,-,N/A,,Clear,230,2013-08-31 13:55:00
9:15 AM,85.3,75.7,73,29.87,10.0,SW,6.9,-,N/A,,Scattered Clouds,230,2013-08-31 14:15:00
9:35 AM,85.6,76.1,73,29.87,10.0,SSW,5.8,-,N/A,,Clear,210,2013-08-31 14:35:00
9:55 AM,87.3,76.1,69,29.87,10.0,SSW,5.8,-,N/A,,Clear,210,2013-08-31 14:55:00
10:15 AM,88.9,75.7,65,29.86,10.0,SSW,4.6,-,N/A,,Clear,210,2013-08-31 15:15:00
10:35 AM,89.8,75.2,62,29.86,10.0,SW,6.9,-,N/A,,Clear,230,2013-08-31 15:35:00
10:55 AM,90.9,75.7,61,29.86,10.0,SW,6.9,-,N/A,,Clear,230,2013-08-31 15:55:00
11:15 AM,91.4,75.6,60,29.86,10.0,WSW,4.6,-,N/A,,Clear,240,2013-08-31 16:15:00
11:35 AM,92.3,75.9,59,29.85,10.0,SW,9.2,-,N/A,,Clear,230,2013-08-31 16:35:00
11:55 AM,93.0,75.2,56,29.85,10.0,WSW,6.9,-,N/A,,Clear,240,2013-08-31 16:55:00
12:15 PM,93.4,75.2,55,29.84,10.0,WSW,4.6,-,N/A,,Clear,250,2013-08-31 17:15:00
12:35 PM,94.1,74.8,53,29.84,10.0,SW,8.1,-,N/A,,Clear,220,2013-08-31 17:35:00
12:55 PM,94.6,74.8,53,29.83,10.0,SW,4.6,-,N/A,,Clear,220,2013-08-31 17:55:00
1:15 PM,95.0,75.4,53,29.83,10.0,SSW,6.9,-,N/A,,Clear,200,2013-08-31 18:15:00
1:35 PM,95.4,75.4,52,29.82,10.0,WSW,5.8,-,N/A,,Clear,240,2013-08-31 18:35:00
1:55 PM,96.1,73.9,49,29.82,10.0,WSW,4.6,16.1,N/A,,Clear,240,2013-08-31 18:55:00
2:15 PM,96.8,72.7,46,29.81,10.0,SW,6.9,-,N/A,,Clear,230,2013-08-31 19:15:00
2:35 PM,97.5,72.3,44,29.80,10.0,WSW,5.8,-,N/A,,Scattered Clouds,240,2013-08-31 19:35:00
2:55 PM,97.9,72.9,44,29.80,10.0,SW,5.8,-,N/A,,Clear,230,2013-08-31 19:55:00
3:15 PM,97.5,70.9,42,29.79,10.0,SW,10.4,16.1,N/A,,Scattered Clouds,220,2013-08-31 20:15:00
3:35 PM,97.0,72.3,45,29.78,10.0,SW,6.9,-,N/A,,Scattered Clouds,230,2013-08-31 20:35:00
3:55 PM,97.5,72.0,44,29.77,10.0,SW,9.2,-,N/A,,Clear,220,2013-08-31 20:55:00
4:15 PM,97.0,71.1,43,29.77,10.0,SW,9.2,-,N/A,,Clear,220,2013-08-31 21:15:00
4:35 PM,97.2,71.4,43,29.76,10.0,SW,5.8,-,N/A,,Clear,220,2013-08-31 21:35:00
4:55 PM,96.8,70.3,42,29.76,10.0,SW,9.2,-,N/A,,Clear,230,2013-08-31 21:55:00
5:15 PM,96.3,71.1,44,29.75,10.0,SW,8.1,-,N/A,,Clear,230,2013-08-31 22:15:00
5:35 PM,95.9,70.7,44,29.75,10.0,SW,8.1,-,N/A,,Clear,220,2013-08-31 22:35:00
5:55 PM,95.0,71.8,47,29.74,10.0,SW,8.1,-,N/A,,Clear,220,2013-08-31 22:55:00
6:15 PM,93.2,72.0,50,29.74,10.0,SW,6.9,-,N/A,,Clear,220,2013-08-31 23:15:00
6:35 PM,91.6,72.5,53,29.74,10.0,SSW,4.6,-,N/A,,Scattered Clouds,200,2013-08-31 23:35:00
6:55 PM,90.5,74.3,59,29.74,10.0,South,5.8,-,N/A,,Clear,190,2013-08-31 23:55:00
7:15 PM,89.6,74.8,62,29.75,10.0,South,5.8,-,N/A,,Clear,190,2013-09-01 00:15:00
7:35 PM,88.9,74.8,63,29.76,10.0,South,5.8,-,N/A,,Clear,180,2013-09-01 00:35:00
7:55 PM,88.0,74.5,64,29.76,10.0,South,5.8,-,N/A,,Scattered Clouds,180,2013-09-01 00:55:00
8:15 PM,87.8,74.3,64,29.75,10.0,South,5.8,-,N/A,,Scattered Clouds,180,2013-09-01 01:15:00
8:35 PM,87.1,74.5,66,29.75,10.0,South,6.9,-,N/A,,Scattered Clouds,180,2013-09-01 01:35:00
8:55 PM,87.3,74.8,66,29.75,10.0,South,5.8,-,N/A,,Mostly Cloudy,190,2013-09-01 01:55:00
9:15 PM,83.7,68.4,60,29.80,10.0,NNW,23.0,33.4,N/A,Thunderstorm,Mostly Cloudy,340,2013-09-01 02:15:00
9:35 PM,73.9,69.4,86,29.85,1.5,West,23.0,49.5,0.41,Rain-Thunderstorm,Heavy Thunderstorms and Rain,270,2013-09-01 02:35:00
9:55 PM,72.9,71.4,95,29.85,7.0,SSW,8.1,-,0.56,Rain-Thunderstorm,Light Thunderstorms and Rain,200,2013-09-01 02:55:00
10:15 PM,73.9,70.3,88,29.81,7.0,South,4.6,-,0.02,Rain-Thunderstorm,Heavy Thunderstorms and Rain,180,2013-09-01 03:15:00
10:35 PM,73.0,70.7,92,29.78,10.0,Calm,Calm,-,0.02,Rain-Thunderstorm,Light Thunderstorms and Rain,0,2013-09-01 03:35:00
10:55 PM,72.7,72.7,100,29.78,7.0,NNW,3.5,-,0.02,,Scattered Clouds,340,2013-09-01 03:55:00
11:15 PM,74.1,72.1,94,29.78,10.0,WSW,4.6,-,N/A,,Clear,250,2013-09-01 04:15:00
11:35 PM,73.9,73.9,100,29.78,7.0,Calm,Calm,-,N/A,,Clear,0,2013-09-01 04:35:00
11:55 PM,73.8,73.8,100,29.78,5.0,Calm,Calm,-,N/A,,Scattered Clouds,0,2013-09-01 04:55:00